sensor_id;sensor_type;location;lat;lon;timestamp;temperature;humidity
51839;DHT22;37886;53.174;6.368;2022-10-16T00:01:29;12.20;99.90
51839;DHT22;37886;53.174;6.368;2022-10-16T00:03:59;12.20;99.90
51839;DHT22;37886;53.174;6.368;2022-10-16T00:06:26;12.20;99.90
51839;DHT22;37886;53.174;6.368;2022-10-16T00:08:52;12.20;99.90
51839;DHT22;37886;53.174;6.368;2022-10-16T00:11:27;12.10;99.90
51839;DHT22;37886;53.174;6.368;2022-10-16T00:13:57;12.10;99.90
51839;DHT22;37886;53.174;6.368;2022-10-16T00:16:23;12.20;99.90
51839;DHT22;37886;53.174;6.368;2022-10-16T00:18:48;12.10;99.90
51839;DHT22;37886;53.174;6.368;2022-10-16T00:21:20;12.10;99.90
51839;DHT22;37886;53.174;6.368;2022-10-16T00:23:54;12.20;99.90
51839;DHT22;37886;53.174;6.368;2022-10-16T00:26:21;12.10;99.90
51839;DHT22;37886;53.174;6.368;2022-10-16T00:28:51;12.10;99.90
51839;DHT22;37886;53.174;6.368;2022-10-16T00:31:18;12.20;99.90
51839;DHT22;37886;53.174;6.368;2022-10-16T00:33:44;12.20;99.90
51839;DHT22;37886;53.174;6.368;2022-10-16T00:36:13;12.20;99.90
51839;DHT22;37886;53.174;6.368;2022-10-16T00:38:39;12.10;99.90
51839;DHT22;37886;53.174;6.368;2022-10-16T00:41:06;12.10;99.90
51839;DHT22;37886;53.174;6.368;2022-10-16T00:43:42;12.10;99.90
51839;DHT22;37886;53.174;6.368;2022-10-16T00:49:08;12.10;99.90
51839;DHT22;37886;53.174;6.368;2022-10-16T00:51:39;12.10;99.90
51839;DHT22;37886;53.174;6.368;2022-10-16T00:54:15;12.00;99.90
51839;DHT22;37886;53.174;6.368;2022-10-16T00:56:43;12.00;99.90
51839;DHT22;37886;53.174;6.368;2022-10-16T00:59:28;12.00;99.90
51839;DHT22;37886;53.174;6.368;2022-10-16T01:01:55;12.10;99.90
51839;DHT22;37886;53.174;6.368;2022-10-16T01:04:22;12.10;99.90
51839;DHT22;37886;53.174;6.368;2022-10-16T01:07:15;12.10;99.90
51839;DHT22;37886;53.174;6.368;2022-10-16T01:12:58;12.10;99.90
51839;DHT22;37886;53.174;6.368;2022-10-16T01:15:37;12.10;99.90
51839;DHT22;37886;53.174;6.368;2022-10-16T01:18:14;12.10;99.90
51839;DHT22;37886;53.174;6.368;2022-10-16T01:28:55;12.20;99.90
51839;DHT22;37886;53.174;6.368;2022-10-16T01:31:25;12.30;99.90
51839;DHT22;37886;53.174;6.368;2022-10-16T01:33:58;12.40;99.90
51839;DHT22;37886;53.174;6.368;2022-10-16T01:36:30;12.30;99.90
51839;DHT22;37886;53.174;6.368;2022-10-16T01:39:00;12.30;99.90
51839;DHT22;37886;53.174;6.368;2022-10-16T01:41:34;12.40;99.90
51839;DHT22;37886;53.174;6.368;2022-10-16T01:44:11;12.40;99.90
51839;DHT22;37886;53.174;6.368;2022-10-16T01:46:40;12.40;99.90
51839;DHT22;37886;53.174;6.368;2022-10-16T01:49:08;12.40;99.90
51839;DHT22;37886;53.174;6.368;2022-10-16T01:51:36;12.60;99.90
51839;DHT22;37886;53.174;6.368;2022-10-16T01:54:03;12.70;99.90
51839;DHT22;37886;53.174;6.368;2022-10-16T01:56:30;12.60;99.90
51839;DHT22;37886;53.174;6.368;2022-10-16T01:59:05;12.60;99.90
51839;DHT22;37886;53.174;6.368;2022-10-16T02:01:34;12.60;99.90
51839;DHT22;37886;53.174;6.368;2022-10-16T02:04:11;12.60;99.90
51839;DHT22;37886;53.174;6.368;2022-10-16T02:06:37;12.60;99.90
51839;DHT22;37886;53.174;6.368;2022-10-16T02:09:03;12.60;99.90
51839;DHT22;37886;53.174;6.368;2022-10-16T02:11:29;12.70;99.90
51839;DHT22;37886;53.174;6.368;2022-10-16T02:14:00;12.70;99.90
51839;DHT22;37886;53.174;6.368;2022-10-16T02:16:36;12.70;99.90
51839;DHT22;37886;53.174;6.368;2022-10-16T02:19:03;12.60;99.90
51839;DHT22;37886;53.174;6.368;2022-10-16T02:21:43;12.70;99.90
51839;DHT22;37886;53.174;6.368;2022-10-16T02:26:49;12.70;99.90
51839;DHT22;37886;53.174;6.368;2022-10-16T02:29:20;12.70;99.90
51839;DHT22;37886;53.174;6.368;2022-10-16T02:31:48;12.70;99.90
51839;DHT22;37886;53.174;6.368;2022-10-16T02:34:16;12.70;99.90
51839;DHT22;37886;53.174;6.368;2022-10-16T02:36:44;12.70;99.90
51839;DHT22;37886;53.174;6.368;2022-10-16T02:39:12;12.70;99.90
51839;DHT22;37886;53.174;6.368;2022-10-16T02:41:39;12.70;99.90
51839;DHT22;37886;53.174;6.368;2022-10-16T02:44:05;12.60;99.90
51839;DHT22;37886;53.174;6.368;2022-10-16T02:46:30;12.50;99.90
51839;DHT22;37886;53.174;6.368;2022-10-16T02:48:56;12.70;99.90
51839;DHT22;37886;53.174;6.368;2022-10-16T02:51:22;12.70;99.90
51839;DHT22;37886;53.174;6.368;2022-10-16T02:53:47;12.70;99.90
51839;DHT22;37886;53.174;6.368;2022-10-16T02:56:13;12.70;99.90
51839;DHT22;37886;53.174;6.368;2022-10-16T02:58:39;12.70;99.90
51839;DHT22;37886;53.174;6.368;2022-10-16T03:01:04;12.70;99.90
51839;DHT22;37886;53.174;6.368;2022-10-16T03:03:30;12.60;99.90
51839;DHT22;37886;53.174;6.368;2022-10-16T03:05:56;12.70;99.90
51839;DHT22;37886;53.174;6.368;2022-10-16T03:08:22;12.70;99.90
51839;DHT22;37886;53.174;6.368;2022-10-16T03:10:51;12.60;99.90
51839;DHT22;37886;53.174;6.368;2022-10-16T03:13:16;12.60;99.90
51839;DHT22;37886;53.174;6.368;2022-10-16T03:15:43;12.50;99.90
51839;DHT22;37886;53.174;6.368;2022-10-16T03:18:09;12.40;99.90
51839;DHT22;37886;53.174;6.368;2022-10-16T03:20:35;12.50;99.90
51839;DHT22;37886;53.174;6.368;2022-10-16T03:23:00;12.50;99.90
51839;DHT22;37886;53.174;6.368;2022-10-16T03:25:28;12.50;99.90
51839;DHT22;37886;53.174;6.368;2022-10-16T03:27:54;12.40;99.90
51839;DHT22;37886;53.174;6.368;2022-10-16T03:30:19;12.40;99.90
51839;DHT22;37886;53.174;6.368;2022-10-16T03:32:46;12.30;99.90
51839;DHT22;37886;53.174;6.368;2022-10-16T03:35:12;12.40;99.90
51839;DHT22;37886;53.174;6.368;2022-10-16T03:37:38;12.30;99.90
51839;DHT22;37886;53.174;6.368;2022-10-16T03:40:04;12.30;99.90
51839;DHT22;37886;53.174;6.368;2022-10-16T03:42:30;12.30;99.90
51839;DHT22;37886;53.174;6.368;2022-10-16T03:44:56;12.40;99.90
51839;DHT22;37886;53.174;6.368;2022-10-16T03:47:22;12.40;99.90
51839;DHT22;37886;53.174;6.368;2022-10-16T03:49:49;12.40;99.90
51839;DHT22;37886;53.174;6.368;2022-10-16T03:52:15;12.40;99.90
51839;DHT22;37886;53.174;6.368;2022-10-16T03:54:41;12.30;99.90
51839;DHT22;37886;53.174;6.368;2022-10-16T03:57:07;12.30;99.90
51839;DHT22;37886;53.174;6.368;2022-10-16T03:59:33;12.20;99.90
51839;DHT22;37886;53.174;6.368;2022-10-16T04:01:58;12.20;99.90
51839;DHT22;37886;53.174;6.368;2022-10-16T04:04:27;12.20;99.90
51839;DHT22;37886;53.174;6.368;2022-10-16T04:06:55;12.10;99.90
51839;DHT22;37886;53.174;6.368;2022-10-16T04:09:20;12.00;99.90
51839;DHT22;37886;53.174;6.368;2022-10-16T04:11:46;12.00;99.90
51839;DHT22;37886;53.174;6.368;2022-10-16T04:14:12;12.00;99.90
51839;DHT22;37886;53.174;6.368;2022-10-16T04:16:38;12.10;99.90
51839;DHT22;37886;53.174;6.368;2022-10-16T04:19:04;12.00;99.90
51839;DHT22;37886;53.174;6.368;2022-10-16T04:21:30;12.10;99.90
51839;DHT22;37886;53.174;6.368;2022-10-16T04:23:55;12.10;99.90
51839;DHT22;37886;53.174;6.368;2022-10-16T04:26:21;12.10;99.90
51839;DHT22;37886;53.174;6.368;2022-10-16T04:28:47;12.10;99.90
51839;DHT22;37886;53.174;6.368;2022-10-16T04:31:12;12.00;99.90
51839;DHT22;37886;53.174;6.368;2022-10-16T04:33:38;12.00;99.90
51839;DHT22;37886;53.174;6.368;2022-10-16T04:36:04;12.10;99.90
51839;DHT22;37886;53.174;6.368;2022-10-16T04:38:30;12.10;99.90
51839;DHT22;37886;53.174;6.368;2022-10-16T04:40:56;12.00;99.90
51839;DHT22;37886;53.174;6.368;2022-10-16T04:43:22;12.10;99.90
51839;DHT22;37886;53.174;6.368;2022-10-16T04:45:48;12.20;99.90
51839;DHT22;37886;53.174;6.368;2022-10-16T04:48:16;12.30;99.90
51839;DHT22;37886;53.174;6.368;2022-10-16T04:50:42;12.30;99.90
51839;DHT22;37886;53.174;6.368;2022-10-16T04:53:07;12.40;99.90
51839;DHT22;37886;53.174;6.368;2022-10-16T04:55:33;12.50;99.90
51839;DHT22;37886;53.174;6.368;2022-10-16T04:57:59;12.50;99.90
51839;DHT22;37886;53.174;6.368;2022-10-16T05:00:25;12.60;99.90
51839;DHT22;37886;53.174;6.368;2022-10-16T05:02:51;12.60;99.90
51839;DHT22;37886;53.174;6.368;2022-10-16T05:05:17;12.60;99.90
51839;DHT22;37886;53.174;6.368;2022-10-16T05:07:45;12.60;99.90
51839;DHT22;37886;53.174;6.368;2022-10-16T05:10:11;12.50;99.90
51839;DHT22;37886;53.174;6.368;2022-10-16T05:12:37;12.50;99.90
51839;DHT22;37886;53.174;6.368;2022-10-16T05:15:04;12.50;99.90
51839;DHT22;37886;53.174;6.368;2022-10-16T05:17:29;12.50;99.90
51839;DHT22;37886;53.174;6.368;2022-10-16T05:19:55;12.50;99.90
51839;DHT22;37886;53.174;6.368;2022-10-16T05:22:21;12.50;99.90
51839;DHT22;37886;53.174;6.368;2022-10-16T05:24:47;12.50;99.90
51839;DHT22;37886;53.174;6.368;2022-10-16T05:27:13;12.50;99.90
51839;DHT22;37886;53.174;6.368;2022-10-16T05:29:48;12.50;99.90
51839;DHT22;37886;53.174;6.368;2022-10-16T05:32:15;12.50;99.90
51839;DHT22;37886;53.174;6.368;2022-10-16T05:34:42;12.50;99.90
51839;DHT22;37886;53.174;6.368;2022-10-16T05:37:08;12.50;99.90
51839;DHT22;37886;53.174;6.368;2022-10-16T05:39:34;12.50;99.90
51839;DHT22;37886;53.174;6.368;2022-10-16T05:42:00;12.50;99.90
51839;DHT22;37886;53.174;6.368;2022-10-16T05:44:25;12.60;99.90
51839;DHT22;37886;53.174;6.368;2022-10-16T05:46:51;12.50;99.90
51839;DHT22;37886;53.174;6.368;2022-10-16T05:49:17;12.50;99.90
51839;DHT22;37886;53.174;6.368;2022-10-16T05:51:43;12.50;99.90
51839;DHT22;37886;53.174;6.368;2022-10-16T05:54:08;12.60;99.90
51839;DHT22;37886;53.174;6.368;2022-10-16T05:56:34;12.60;99.90
51839;DHT22;37886;53.174;6.368;2022-10-16T05:59:00;12.50;99.90
51839;DHT22;37886;53.174;6.368;2022-10-16T06:01:26;12.50;99.90
51839;DHT22;37886;53.174;6.368;2022-10-16T06:03:52;12.50;99.90
51839;DHT22;37886;53.174;6.368;2022-10-16T06:06:20;12.40;99.90
51839;DHT22;37886;53.174;6.368;2022-10-16T06:08:46;12.50;99.90
51839;DHT22;37886;53.174;6.368;2022-10-16T06:11:24;12.50;99.90
51839;DHT22;37886;53.174;6.368;2022-10-16T06:13:54;12.50;99.90
51839;DHT22;37886;53.174;6.368;2022-10-16T06:16:20;12.50;99.90
51839;DHT22;37886;53.174;6.368;2022-10-16T06:18:46;12.50;99.90
51839;DHT22;37886;53.174;6.368;2022-10-16T06:21:17;12.50;99.90
51839;DHT22;37886;53.174;6.368;2022-10-16T06:23:43;12.60;99.90
51839;DHT22;37886;53.174;6.368;2022-10-16T06:26:11;12.60;99.90
51839;DHT22;37886;53.174;6.368;2022-10-16T06:28:38;12.70;99.90
51839;DHT22;37886;53.174;6.368;2022-10-16T06:31:05;12.80;99.90
51839;DHT22;37886;53.174;6.368;2022-10-16T06:33:31;12.80;99.90
51839;DHT22;37886;53.174;6.368;2022-10-16T06:36:05;12.80;99.90
51839;DHT22;37886;53.174;6.368;2022-10-16T06:38:35;12.80;99.90
51839;DHT22;37886;53.174;6.368;2022-10-16T06:41:01;12.80;99.90
51839;DHT22;37886;53.174;6.368;2022-10-16T06:43:29;12.80;99.90
51839;DHT22;37886;53.174;6.368;2022-10-16T06:45:58;12.80;99.90
51839;DHT22;37886;53.174;6.368;2022-10-16T06:48:28;12.80;99.90
51839;DHT22;37886;53.174;6.368;2022-10-16T06:51:02;12.90;99.90
51839;DHT22;37886;53.174;6.368;2022-10-16T06:53:31;12.90;99.90
51839;DHT22;37886;53.174;6.368;2022-10-16T06:55:57;12.90;99.90
51839;DHT22;37886;53.174;6.368;2022-10-16T06:58:23;12.90;99.90
51839;DHT22;37886;53.174;6.368;2022-10-16T07:00:49;12.80;99.90
51839;DHT22;37886;53.174;6.368;2022-10-16T07:03:20;12.90;99.90
51839;DHT22;37886;53.174;6.368;2022-10-16T07:05:48;12.90;99.90
51839;DHT22;37886;53.174;6.368;2022-10-16T07:08:14;12.90;99.90
51839;DHT22;37886;53.174;6.368;2022-10-16T07:10:39;12.90;99.90
51839;DHT22;37886;53.174;6.368;2022-10-16T07:13:05;13.00;99.90
51839;DHT22;37886;53.174;6.368;2022-10-16T07:15:33;13.00;99.90
51839;DHT22;37886;53.174;6.368;2022-10-16T07:17:59;13.10;99.90
51839;DHT22;37886;53.174;6.368;2022-10-16T07:20:28;13.10;99.90
51839;DHT22;37886;53.174;6.368;2022-10-16T07:22:53;13.10;99.90
51839;DHT22;37886;53.174;6.368;2022-10-16T07:25:19;13.00;99.90
51839;DHT22;37886;53.174;6.368;2022-10-16T07:27:45;13.00;99.90
51839;DHT22;37886;53.174;6.368;2022-10-16T07:30:11;12.90;99.90
51839;DHT22;37886;53.174;6.368;2022-10-16T07:32:37;12.80;99.90
51839;DHT22;37886;53.174;6.368;2022-10-16T07:35:03;12.80;99.90
51839;DHT22;37886;53.174;6.368;2022-10-16T07:37:29;12.80;99.90
51839;DHT22;37886;53.174;6.368;2022-10-16T07:39:55;12.70;99.90
51839;DHT22;37886;53.174;6.368;2022-10-16T07:42:20;12.70;99.90
51839;DHT22;37886;53.174;6.368;2022-10-16T07:44:46;12.70;99.90
51839;DHT22;37886;53.174;6.368;2022-10-16T07:47:12;12.70;99.90
51839;DHT22;37886;53.174;6.368;2022-10-16T07:49:38;12.70;99.90
51839;DHT22;37886;53.174;6.368;2022-10-16T07:52:04;12.70;99.90
51839;DHT22;37886;53.174;6.368;2022-10-16T07:54:30;12.60;99.90
51839;DHT22;37886;53.174;6.368;2022-10-16T07:56:55;12.50;99.90
51839;DHT22;37886;53.174;6.368;2022-10-16T07:59:21;12.60;99.90
51839;DHT22;37886;53.174;6.368;2022-10-16T08:01:49;12.60;99.90
51839;DHT22;37886;53.174;6.368;2022-10-16T08:04:18;12.60;99.90
51839;DHT22;37886;53.174;6.368;2022-10-16T08:06:43;12.60;99.90
51839;DHT22;37886;53.174;6.368;2022-10-16T08:09:09;12.60;99.90
51839;DHT22;37886;53.174;6.368;2022-10-16T08:11:35;12.70;99.90
51839;DHT22;37886;53.174;6.368;2022-10-16T08:14:01;12.80;99.90
51839;DHT22;37886;53.174;6.368;2022-10-16T08:16:26;13.00;99.90
51839;DHT22;37886;53.174;6.368;2022-10-16T08:18:52;13.10;99.90
51839;DHT22;37886;53.174;6.368;2022-10-16T08:21:20;13.30;99.90
51839;DHT22;37886;53.174;6.368;2022-10-16T08:23:49;13.40;99.90
51839;DHT22;37886;53.174;6.368;2022-10-16T08:26:15;13.60;99.90
51839;DHT22;37886;53.174;6.368;2022-10-16T08:28:41;13.80;99.90
51839;DHT22;37886;53.174;6.368;2022-10-16T08:31:12;13.90;99.90
51839;DHT22;37886;53.174;6.368;2022-10-16T08:33:40;14.10;99.90
51839;DHT22;37886;53.174;6.368;2022-10-16T08:36:06;14.10;99.90
51839;DHT22;37886;53.174;6.368;2022-10-16T08:38:32;14.00;99.90
51839;DHT22;37886;53.174;6.368;2022-10-16T08:49:14;14.50;99.90
51839;DHT22;37886;53.174;6.368;2022-10-16T08:51:41;14.60;99.90
51839;DHT22;37886;53.174;6.368;2022-10-16T08:56:41;14.90;99.90
51839;DHT22;37886;53.174;6.368;2022-10-16T08:59:18;14.80;99.90
51839;DHT22;37886;53.174;6.368;2022-10-16T09:01:46;14.90;99.90
51839;DHT22;37886;53.174;6.368;2022-10-16T09:04:49;14.80;99.90
51839;DHT22;37886;53.174;6.368;2022-10-16T09:10:25;14.70;99.90
51839;DHT22;37886;53.174;6.368;2022-10-16T09:21:21;14.90;99.90
51839;DHT22;37886;53.174;6.368;2022-10-16T09:23:49;15.10;99.90
51839;DHT22;37886;53.174;6.368;2022-10-16T09:26:16;15.10;99.90
51839;DHT22;37886;53.174;6.368;2022-10-16T09:28:43;15.10;99.90
51839;DHT22;37886;53.174;6.368;2022-10-16T09:31:17;15.10;99.90
51839;DHT22;37886;53.174;6.368;2022-10-16T09:33:47;15.10;99.90
51839;DHT22;37886;53.174;6.368;2022-10-16T09:36:13;15.10;99.90
51839;DHT22;37886;53.174;6.368;2022-10-16T09:38:40;15.00;99.90
51839;DHT22;37886;53.174;6.368;2022-10-16T09:41:16;14.90;99.90
51839;DHT22;37886;53.174;6.368;2022-10-16T09:43:53;15.10;99.90
51839;DHT22;37886;53.174;6.368;2022-10-16T09:48:49;15.10;99.90
51839;DHT22;37886;53.174;6.368;2022-10-16T09:51:27;15.10;99.90
51839;DHT22;37886;53.174;6.368;2022-10-16T09:53:59;15.10;99.90
51839;DHT22;37886;53.174;6.368;2022-10-16T09:56:28;15.30;99.90
51839;DHT22;37886;53.174;6.368;2022-10-16T09:58:57;15.50;99.90
51839;DHT22;37886;53.174;6.368;2022-10-16T10:01:43;15.60;99.90
51839;DHT22;37886;53.174;6.368;2022-10-16T10:04:10;15.70;99.90
51839;DHT22;37886;53.174;6.368;2022-10-16T10:06:47;15.70;99.90
51839;DHT22;37886;53.174;6.368;2022-10-16T10:09:27;15.70;99.90
51839;DHT22;37886;53.174;6.368;2022-10-16T10:11:59;15.70;99.90
51839;DHT22;37886;53.174;6.368;2022-10-16T10:19:49;15.80;99.90
51839;DHT22;37886;53.174;6.368;2022-10-16T10:22:25;15.80;99.90
51839;DHT22;37886;53.174;6.368;2022-10-16T10:30:29;15.90;99.90
51839;DHT22;37886;53.174;6.368;2022-10-16T10:38:59;16.00;99.90
51839;DHT22;37886;53.174;6.368;2022-10-16T10:44:21;16.20;99.90
51839;DHT22;37886;53.174;6.368;2022-10-16T10:52:46;16.00;99.90
51839;DHT22;37886;53.174;6.368;2022-10-16T10:55:31;15.80;99.90
51839;DHT22;37886;53.174;6.368;2022-10-16T11:03:56;16.00;99.90
51839;DHT22;37886;53.174;6.368;2022-10-16T11:12:18;16.20;99.90
51839;DHT22;37886;53.174;6.368;2022-10-16T11:14:45;16.30;99.90
51839;DHT22;37886;53.174;6.368;2022-10-16T11:17:35;16.20;99.90
51839;DHT22;37886;53.174;6.368;2022-10-16T11:20:13;16.40;99.90
51839;DHT22;37886;53.174;6.368;2022-10-16T11:23:05;16.70;99.90
51839;DHT22;37886;53.174;6.368;2022-10-16T11:25:33;16.90;99.90
51839;DHT22;37886;53.174;6.368;2022-10-16T11:28:35;16.50;99.90
51839;DHT22;37886;53.174;6.368;2022-10-16T11:37:01;16.70;99.90
51839;DHT22;37886;53.174;6.368;2022-10-16T11:39:30;16.70;99.90
51839;DHT22;37886;53.174;6.368;2022-10-16T11:42:21;16.60;99.90
51839;DHT22;37886;53.174;6.368;2022-10-16T11:44:53;16.60;99.90
51839;DHT22;37886;53.174;6.368;2022-10-16T11:47:37;17.10;99.90
51839;DHT22;37886;53.174;6.368;2022-10-16T11:55:47;17.20;99.90
51839;DHT22;37886;53.174;6.368;2022-10-16T11:58:39;17.20;99.90
51839;DHT22;37886;53.174;6.368;2022-10-16T12:01:17;16.90;99.90
51839;DHT22;37886;53.174;6.368;2022-10-16T12:07:09;17.80;99.90
51839;DHT22;37886;53.174;6.368;2022-10-16T12:09:40;17.80;99.90
51839;DHT22;37886;53.174;6.368;2022-10-16T12:15:22;18.20;99.90
51839;DHT22;37886;53.174;6.368;2022-10-16T12:17:49;18.50;99.90
51839;DHT22;37886;53.174;6.368;2022-10-16T12:20:27;18.70;99.90
51839;DHT22;37886;53.174;6.368;2022-10-16T12:22:54;18.50;99.90
51839;DHT22;37886;53.174;6.368;2022-10-16T12:25:25;18.30;99.90
51839;DHT22;37886;53.174;6.368;2022-10-16T12:28:01;18.20;99.90
51839;DHT22;37886;53.174;6.368;2022-10-16T12:30:30;18.10;99.90
51839;DHT22;37886;53.174;6.368;2022-10-16T12:33:02;18.20;99.90
51839;DHT22;37886;53.174;6.368;2022-10-16T12:35:31;18.10;99.90
51839;DHT22;37886;53.174;6.368;2022-10-16T12:38:06;18.40;99.90
51839;DHT22;37886;53.174;6.368;2022-10-16T12:40:35;17.60;99.90
51839;DHT22;37886;53.174;6.368;2022-10-16T12:45:58;17.70;99.90
51839;DHT22;37886;53.174;6.368;2022-10-16T12:48:24;18.00;99.90
51839;DHT22;37886;53.174;6.368;2022-10-16T12:50:49;18.40;99.90
51839;DHT22;37886;53.174;6.368;2022-10-16T12:53:35;18.70;99.90
51839;DHT22;37886;53.174;6.368;2022-10-16T12:56:22;18.40;99.90
51839;DHT22;37886;53.174;6.368;2022-10-16T12:59:23;18.30;99.90
51839;DHT22;37886;53.174;6.368;2022-10-16T13:05:06;17.80;99.90
51839;DHT22;37886;53.174;6.368;2022-10-16T13:16:18;17.20;99.90
51839;DHT22;37886;53.174;6.368;2022-10-16T13:22:21;17.10;99.90
51839;DHT22;37886;53.174;6.368;2022-10-16T13:25:13;17.30;99.90
51839;DHT22;37886;53.174;6.368;2022-10-16T13:27:49;17.30;99.90
51839;DHT22;37886;53.174;6.368;2022-10-16T13:30:21;17.20;99.90
51839;DHT22;37886;53.174;6.368;2022-10-16T13:32:52;17.10;99.90
51839;DHT22;37886;53.174;6.368;2022-10-16T13:35:26;16.90;99.90
51839;DHT22;37886;53.174;6.368;2022-10-16T13:38:11;16.90;99.90
51839;DHT22;37886;53.174;6.368;2022-10-16T13:40:52;16.80;99.90
51839;DHT22;37886;53.174;6.368;2022-10-16T13:43:19;18.20;99.90
51839;DHT22;37886;53.174;6.368;2022-10-16T13:46:01;19.80;99.90
51839;DHT22;37886;53.174;6.368;2022-10-16T13:48:29;20.80;99.90
51839;DHT22;37886;53.174;6.368;2022-10-16T13:51:13;20.60;99.90
51839;DHT22;37886;53.174;6.368;2022-10-16T13:53:39;20.90;99.90
51839;DHT22;37886;53.174;6.368;2022-10-16T13:56:10;20.70;99.90
51839;DHT22;37886;53.174;6.368;2022-10-16T13:58:36;20.20;99.90
51839;DHT22;37886;53.174;6.368;2022-10-16T14:01:04;21.30;99.90
51839;DHT22;37886;53.174;6.368;2022-10-16T14:03:34;21.90;99.90
51839;DHT22;37886;53.174;6.368;2022-10-16T14:06:04;21.10;99.90
51839;DHT22;37886;53.174;6.368;2022-10-16T14:08:32;21.00;99.90
51839;DHT22;37886;53.174;6.368;2022-10-16T14:10:59;21.90;99.90
51839;DHT22;37886;53.174;6.368;2022-10-16T14:13:32;22.10;99.90
51839;DHT22;37886;53.174;6.368;2022-10-16T14:16:02;22.30;99.90
51839;DHT22;37886;53.174;6.368;2022-10-16T14:18:31;21.50;99.90
51839;DHT22;37886;53.174;6.368;2022-10-16T14:21:06;20.90;99.90
51839;DHT22;37886;53.174;6.368;2022-10-16T14:23:37;21.00;99.90
51839;DHT22;37886;53.174;6.368;2022-10-16T14:28:36;19.90;99.90
51839;DHT22;37886;53.174;6.368;2022-10-16T14:31:31;18.70;99.90
51839;DHT22;37886;53.174;6.368;2022-10-16T14:33:57;18.40;99.90
51839;DHT22;37886;53.174;6.368;2022-10-16T14:36:24;18.10;99.90
51839;DHT22;37886;53.174;6.368;2022-10-16T14:39:03;17.60;99.90
51839;DHT22;37886;53.174;6.368;2022-10-16T14:41:32;17.10;99.90
51839;DHT22;37886;53.174;6.368;2022-10-16T14:44:03;16.80;99.90
51839;DHT22;37886;53.174;6.368;2022-10-16T14:46:38;16.50;99.90
51839;DHT22;37886;53.174;6.368;2022-10-16T14:51:40;16.20;99.90
51839;DHT22;37886;53.174;6.368;2022-10-16T14:54:09;16.10;99.90
51839;DHT22;37886;53.174;6.368;2022-10-16T14:56:55;16.00;99.90
51839;DHT22;37886;53.174;6.368;2022-10-16T15:01:53;15.90;99.90
51839;DHT22;37886;53.174;6.368;2022-10-16T15:04:19;15.80;99.90
51839;DHT22;37886;53.174;6.368;2022-10-16T15:06:45;15.80;99.90
51839;DHT22;37886;53.174;6.368;2022-10-16T15:09:11;15.80;99.90
51839;DHT22;37886;53.174;6.368;2022-10-16T15:11:37;15.70;99.90
51839;DHT22;37886;53.174;6.368;2022-10-16T15:14:03;15.70;99.90
51839;DHT22;37886;53.174;6.368;2022-10-16T15:16:29;15.70;99.90
51839;DHT22;37886;53.174;6.368;2022-10-16T15:18:55;15.60;99.90
51839;DHT22;37886;53.174;6.368;2022-10-16T15:21:28;15.60;99.90
51839;DHT22;37886;53.174;6.368;2022-10-16T15:23:54;15.60;99.90
51839;DHT22;37886;53.174;6.368;2022-10-16T15:26:25;15.60;99.90
51839;DHT22;37886;53.174;6.368;2022-10-16T15:28:51;15.60;99.90
51839;DHT22;37886;53.174;6.368;2022-10-16T15:31:17;15.50;99.90
51839;DHT22;37886;53.174;6.368;2022-10-16T15:33:43;15.50;99.90
51839;DHT22;37886;53.174;6.368;2022-10-16T15:36:09;15.30;99.90
51839;DHT22;37886;53.174;6.368;2022-10-16T15:38:35;15.10;99.90
51839;DHT22;37886;53.174;6.368;2022-10-16T15:41:01;15.00;99.90
51839;DHT22;37886;53.174;6.368;2022-10-16T15:43:27;15.00;99.90
51839;DHT22;37886;53.174;6.368;2022-10-16T15:46:09;14.90;99.90
51839;DHT22;37886;53.174;6.368;2022-10-16T15:48:36;14.90;99.90
51839;DHT22;37886;53.174;6.368;2022-10-16T15:51:05;14.80;99.90
51839;DHT22;37886;53.174;6.368;2022-10-16T15:53:31;14.70;99.90
51839;DHT22;37886;53.174;6.368;2022-10-16T15:55:57;14.50;99.90
51839;DHT22;37886;53.174;6.368;2022-10-16T15:58:22;14.50;99.90
51839;DHT22;37886;53.174;6.368;2022-10-16T16:00:59;14.40;99.90
51839;DHT22;37886;53.174;6.368;2022-10-16T16:03:33;14.20;99.90
51839;DHT22;37886;53.174;6.368;2022-10-16T16:06:07;14.10;99.90
51839;DHT22;37886;53.174;6.368;2022-10-16T16:08:33;14.00;99.90
51839;DHT22;37886;53.174;6.368;2022-10-16T16:11:00;13.80;99.90
51839;DHT22;37886;53.174;6.368;2022-10-16T16:13:26;13.70;99.90
51839;DHT22;37886;53.174;6.368;2022-10-16T16:15:52;13.60;99.90
51839;DHT22;37886;53.174;6.368;2022-10-16T16:18:18;13.40;99.90
51839;DHT22;37886;53.174;6.368;2022-10-16T16:20:44;13.30;99.90
51839;DHT22;37886;53.174;6.368;2022-10-16T16:23:09;13.20;99.90
51839;DHT22;37886;53.174;6.368;2022-10-16T16:25:36;13.10;99.90
51839;DHT22;37886;53.174;6.368;2022-10-16T16:28:01;12.90;99.90
51839;DHT22;37886;53.174;6.368;2022-10-16T16:30:27;12.90;99.90
51839;DHT22;37886;53.174;6.368;2022-10-16T16:32:52;12.80;99.90
51839;DHT22;37886;53.174;6.368;2022-10-16T16:35:18;12.70;99.90
51839;DHT22;37886;53.174;6.368;2022-10-16T16:37:44;12.60;99.90
51839;DHT22;37886;53.174;6.368;2022-10-16T16:40:10;12.50;99.90
51839;DHT22;37886;53.174;6.368;2022-10-16T16:42:36;12.50;99.90
51839;DHT22;37886;53.174;6.368;2022-10-16T16:45:01;12.40;99.90
51839;DHT22;37886;53.174;6.368;2022-10-16T16:47:27;12.30;99.90
51839;DHT22;37886;53.174;6.368;2022-10-16T16:49:52;12.30;99.90
51839;DHT22;37886;53.174;6.368;2022-10-16T16:52:18;12.30;99.90
51839;DHT22;37886;53.174;6.368;2022-10-16T16:54:44;12.10;99.90
51839;DHT22;37886;53.174;6.368;2022-10-16T16:57:17;12.10;99.90
51839;DHT22;37886;53.174;6.368;2022-10-16T16:59:44;12.00;99.90
51839;DHT22;37886;53.174;6.368;2022-10-16T17:02:09;12.00;99.90
51839;DHT22;37886;53.174;6.368;2022-10-16T17:04:35;11.90;99.90
51839;DHT22;37886;53.174;6.368;2022-10-16T17:07:01;11.80;99.90
51839;DHT22;37886;53.174;6.368;2022-10-16T17:09:26;11.80;99.90
51839;DHT22;37886;53.174;6.368;2022-10-16T17:11:53;11.70;99.90
51839;DHT22;37886;53.174;6.368;2022-10-16T17:14:18;11.70;99.90
51839;DHT22;37886;53.174;6.368;2022-10-16T17:16:44;11.60;99.90
51839;DHT22;37886;53.174;6.368;2022-10-16T17:19:13;11.60;99.90
51839;DHT22;37886;53.174;6.368;2022-10-16T17:21:39;11.60;99.90
51839;DHT22;37886;53.174;6.368;2022-10-16T17:24:06;11.60;99.90
51839;DHT22;37886;53.174;6.368;2022-10-16T17:26:32;11.50;99.90
51839;DHT22;37886;53.174;6.368;2022-10-16T17:29:00;11.50;99.90
51839;DHT22;37886;53.174;6.368;2022-10-16T17:31:29;11.50;99.90
51839;DHT22;37886;53.174;6.368;2022-10-16T17:33:57;11.50;99.90
51839;DHT22;37886;53.174;6.368;2022-10-16T17:36:23;11.40;99.90
51839;DHT22;37886;53.174;6.368;2022-10-16T17:38:50;11.40;99.90
51839;DHT22;37886;53.174;6.368;2022-10-16T17:41:23;11.40;99.90
51839;DHT22;37886;53.174;6.368;2022-10-16T17:43:49;11.40;99.90
51839;DHT22;37886;53.174;6.368;2022-10-16T17:46:17;11.40;99.90